sensor_id;sensor_type;location;lat;lon;timestamp;P1;durP1;ratioP1;P2;durP2;ratioP2
76210;SDS011;65003;49.518;11.280;2024-03-06T00:01:53;24.10;;;15.17;;
76210;SDS011;65003;49.518;11.280;2024-03-06T00:04:20;23.80;;;14.57;;
76210;SDS011;65003;49.518;11.280;2024-03-06T00:06:46;21.57;;;14.33;;
76210;SDS011;65003;49.518;11.280;2024-03-06T00:09:13;22.90;;;14.27;;
76210;SDS011;65003;49.518;11.280;2024-03-06T00:11:40;20.97;;;14.03;;
76210;SDS011;65003;49.518;11.280;2024-03-06T00:14:06;21.27;;;14.77;;
76210;SDS011;65003;49.518;11.280;2024-03-06T00:16:33;22.10;;;14.67;;
76210;SDS011;65003;49.518;11.280;2024-03-06T00:18:59;24.43;;;13.98;;
76210;SDS011;65003;49.518;11.280;2024-03-06T00:21:26;20.50;;;14.77;;
76210;SDS011;65003;49.518;11.280;2024-03-06T00:23:52;24.63;;;15.20;;
76210;SDS011;65003;49.518;11.280;2024-03-06T00:26:19;21.60;;;14.77;;
76210;SDS011;65003;49.518;11.280;2024-03-06T00:28:46;24.23;;;15.33;;
76210;SDS011;65003;49.518;11.280;2024-03-06T00:31:12;20.27;;;14.17;;
76210;SDS011;65003;49.518;11.280;2024-03-06T00:33:39;24.20;;;14.80;;
76210;SDS011;65003;49.518;11.280;2024-03-06T00:36:06;22.00;;;14.30;;
76210;SDS011;65003;49.518;11.280;2024-03-06T00:38:32;21.77;;;13.80;;
76210;SDS011;65003;49.518;11.280;2024-03-06T00:40:59;22.23;;;14.50;;
76210;SDS011;65003;49.518;11.280;2024-03-06T00:43:25;23.30;;;15.43;;
76210;SDS011;65003;49.518;11.280;2024-03-06T00:45:52;20.40;;;14.20;;
76210;SDS011;65003;49.518;11.280;2024-03-06T00:48:19;20.40;;;14.30;;
76210;SDS011;65003;49.518;11.280;2024-03-06T00:50:46;22.32;;;13.78;;
76210;SDS011;65003;49.518;11.280;2024-03-06T00:53:12;19.93;;;13.40;;
76210;SDS011;65003;49.518;11.280;2024-03-06T00:55:39;22.73;;;13.87;;
76210;SDS011;65003;49.518;11.280;2024-03-06T00:58:05;20.15;;;13.38;;
76210;SDS011;65003;49.518;11.280;2024-03-06T01:00:33;21.80;;;14.00;;
76210;SDS011;65003;49.518;11.280;2024-03-06T01:02:59;20.27;;;13.43;;
76210;SDS011;65003;49.518;11.280;2024-03-06T01:05:26;21.33;;;13.67;;
76210;SDS011;65003;49.518;11.280;2024-03-06T01:07:52;20.17;;;13.07;;
76210;SDS011;65003;49.518;11.280;2024-03-06T01:10:19;22.50;;;14.87;;
76210;SDS011;65003;49.518;11.280;2024-03-06T01:12:46;22.30;;;13.73;;
76210;SDS011;65003;49.518;11.280;2024-03-06T01:15:12;19.90;;;13.97;;
76210;SDS011;65003;49.518;11.280;2024-03-06T01:17:39;24.90;;;15.30;;
76210;SDS011;65003;49.518;11.280;2024-03-06T01:20:06;25.57;;;14.97;;
76210;SDS011;65003;49.518;11.280;2024-03-06T01:22:33;27.03;;;15.30;;
76210;SDS011;65003;49.518;11.280;2024-03-06T01:24:59;22.22;;;15.80;;
76210;SDS011;65003;49.518;11.280;2024-03-06T01:27:26;23.43;;;14.57;;
76210;SDS011;65003;49.518;11.280;2024-03-06T01:29:53;25.93;;;15.50;;
76210;SDS011;65003;49.518;11.280;2024-03-06T01:32:19;23.77;;;15.70;;
76210;SDS011;65003;49.518;11.280;2024-03-06T01:34:46;24.10;;;15.13;;
76210;SDS011;65003;49.518;11.280;2024-03-06T01:37:12;23.17;;;15.77;;
76210;SDS011;65003;49.518;11.280;2024-03-06T01:39:39;25.47;;;16.20;;
76210;SDS011;65003;49.518;11.280;2024-03-06T01:42:06;23.63;;;14.47;;
76210;SDS011;65003;49.518;11.280;2024-03-06T01:44:32;25.07;;;14.87;;
76210;SDS011;65003;49.518;11.280;2024-03-06T01:46:59;26.37;;;17.40;;
76210;SDS011;65003;49.518;11.280;2024-03-06T01:49:25;24.27;;;15.50;;
76210;SDS011;65003;49.518;11.280;2024-03-06T01:51:53;31.03;;;15.77;;
76210;SDS011;65003;49.518;11.280;2024-03-06T01:54:19;25.33;;;15.47;;
76210;SDS011;65003;49.518;11.280;2024-03-06T01:56:46;26.27;;;15.83;;
76210;SDS011;65003;49.518;11.280;2024-03-06T01:59:13;27.87;;;16.70;;
76210;SDS011;65003;49.518;11.280;2024-03-06T02:01:39;23.67;;;15.83;;
76210;SDS011;65003;49.518;11.280;2024-03-06T02:04:06;26.40;;;16.17;;
76210;SDS011;65003;49.518;11.280;2024-03-06T02:06:33;29.90;;;17.20;;
76210;SDS011;65003;49.518;11.280;2024-03-06T02:08:59;25.17;;;15.80;;
76210;SDS011;65003;49.518;11.280;2024-03-06T02:11:26;24.90;;;16.40;;
76210;SDS011;65003;49.518;11.280;2024-03-06T02:13:53;24.50;;;16.10;;
76210;SDS011;65003;49.518;11.280;2024-03-06T02:16:19;29.50;;;16.83;;
76210;SDS011;65003;49.518;11.280;2024-03-06T02:18:51;26.33;;;16.10;;
76210;SDS011;65003;49.518;11.280;2024-03-06T02:21:20;27.17;;;17.27;;
76210;SDS011;65003;49.518;11.280;2024-03-06T02:23:46;25.73;;;16.37;;
76210;SDS011;65003;49.518;11.280;2024-03-06T02:26:13;24.80;;;16.53;;
76210;SDS011;65003;49.518;11.280;2024-03-06T02:28:46;24.53;;;16.57;;
76210;SDS011;65003;49.518;11.280;2024-03-06T02:31:06;25.95;;;15.53;;
76210;SDS011;65003;49.518;11.280;2024-03-06T02:33:33;26.73;;;16.70;;
76210;SDS011;65003;49.518;11.280;2024-03-06T02:35:59;25.13;;;15.80;;
76210;SDS011;65003;49.518;11.280;2024-03-06T02:38:26;25.60;;;16.23;;
76210;SDS011;65003;49.518;11.280;2024-03-06T02:40:53;21.13;;;14.90;;
76210;SDS011;65003;49.518;11.280;2024-03-06T02:43:19;24.43;;;16.00;;
76210;SDS011;65003;49.518;11.280;2024-03-06T02:45:46;26.60;;;16.03;;
76210;SDS011;65003;49.518;11.280;2024-03-06T02:48:12;23.87;;;16.23;;
76210;SDS011;65003;49.518;11.280;2024-03-06T02:50:39;22.77;;;15.57;;
76210;SDS011;65003;49.518;11.280;2024-03-06T02:53:05;25.73;;;16.10;;
76210;SDS011;65003;49.518;11.280;2024-03-06T02:55:32;27.67;;;16.07;;
76210;SDS011;65003;49.518;11.280;2024-03-06T02:58:02;26.80;;;16.17;;
76210;SDS011;65003;49.518;11.280;2024-03-06T03:00:28;23.97;;;15.53;;
76210;SDS011;65003;49.518;11.280;2024-03-06T03:02:55;23.63;;;16.37;;
76210;SDS011;65003;49.518;11.280;2024-03-06T03:05:21;29.13;;;17.53;;
76210;SDS011;65003;49.518;11.280;2024-03-06T03:07:48;25.47;;;16.27;;
76210;SDS011;65003;49.518;11.280;2024-03-06T03:10:15;27.75;;;17.12;;
76210;SDS011;65003;49.518;11.280;2024-03-06T03:12:41;29.33;;;17.70;;
76210;SDS011;65003;49.518;11.280;2024-03-06T03:15:08;26.37;;;16.30;;
76210;SDS011;65003;49.518;11.280;2024-03-06T03:17:35;28.57;;;16.97;;
76210;SDS011;65003;49.518;11.280;2024-03-06T03:20:02;27.27;;;17.23;;
76210;SDS011;65003;49.518;11.280;2024-03-06T03:22:30;27.17;;;17.30;;
76210;SDS011;65003;49.518;11.280;2024-03-06T03:24:57;23.98;;;16.75;;
76210;SDS011;65003;49.518;11.280;2024-03-06T03:27:24;23.77;;;15.97;;
76210;SDS011;65003;49.518;11.280;2024-03-06T03:29:50;28.03;;;17.23;;
76210;SDS011;65003;49.518;11.280;2024-03-06T03:32:17;27.53;;;17.60;;
76210;SDS011;65003;49.518;11.280;2024-03-06T03:34:43;28.13;;;16.60;;
76210;SDS011;65003;49.518;11.280;2024-03-06T03:37:10;27.02;;;17.20;;
76210;SDS011;65003;49.518;11.280;2024-03-06T03:39:37;29.17;;;17.33;;
76210;SDS011;65003;49.518;11.280;2024-03-06T03:42:03;30.83;;;17.87;;
76210;SDS011;65003;49.518;11.280;2024-03-06T03:44:30;30.23;;;17.73;;
76210;SDS011;65003;49.518;11.280;2024-03-06T03:46:56;29.37;;;18.50;;
76210;SDS011;65003;49.518;11.280;2024-03-06T03:49:23;31.03;;;18.90;;
76210;SDS011;65003;49.518;11.280;2024-03-06T03:51:49;31.00;;;18.40;;
76210;SDS011;65003;49.518;11.280;2024-03-06T03:54:16;34.00;;;18.37;;
76210;SDS011;65003;49.518;11.280;2024-03-06T03:56:43;33.67;;;18.25;;
76210;SDS011;65003;49.518;11.280;2024-03-06T03:59:09;29.93;;;17.67;;
76210;SDS011;65003;49.518;11.280;2024-03-06T04:01:36;33.83;;;18.50;;
76210;SDS011;65003;49.518;11.280;2024-03-06T04:04:02;28.98;;;17.42;;
76210;SDS011;65003;49.518;11.280;2024-03-06T04:06:29;31.23;;;18.03;;
76210;SDS011;65003;49.518;11.280;2024-03-06T04:08:56;29.53;;;17.50;;
76210;SDS011;65003;49.518;11.280;2024-03-06T04:11:22;30.17;;;18.07;;
76210;SDS011;65003;49.518;11.280;2024-03-06T04:13:49;28.70;;;17.30;;
76210;SDS011;65003;49.518;11.280;2024-03-06T04:16:16;35.30;;;19.75;;
76210;SDS011;65003;49.518;11.280;2024-03-06T04:18:44;31.50;;;17.83;;
76210;SDS011;65003;49.518;11.280;2024-03-06T04:21:10;30.40;;;17.47;;
76210;SDS011;65003;49.518;11.280;2024-03-06T04:23:36;30.97;;;17.47;;
76210;SDS011;65003;49.518;11.280;2024-03-06T04:26:03;31.90;;;18.07;;
76210;SDS011;65003;49.518;11.280;2024-03-06T04:28:30;31.87;;;17.73;;
76210;SDS011;65003;49.518;11.280;2024-03-06T04:30:56;31.20;;;18.10;;
76210;SDS011;65003;49.518;11.280;2024-03-06T04:33:23;30.10;;;17.93;;
76210;SDS011;65003;49.518;11.280;2024-03-06T04:35:49;28.77;;;17.03;;
76210;SDS011;65003;49.518;11.280;2024-03-06T04:38:16;31.63;;;17.43;;
76210;SDS011;65003;49.518;11.280;2024-03-06T04:40:43;28.53;;;16.20;;
76210;SDS011;65003;49.518;11.280;2024-03-06T04:43:09;29.45;;;16.93;;
76210;SDS011;65003;49.518;11.280;2024-03-06T04:45:36;30.70;;;17.43;;
76210;SDS011;65003;49.518;11.280;2024-03-06T04:48:02;29.57;;;16.57;;
76210;SDS011;65003;49.518;11.280;2024-03-06T04:50:29;27.20;;;16.90;;
76210;SDS011;65003;49.518;11.280;2024-03-06T04:52:56;29.53;;;17.17;;
76210;SDS011;65003;49.518;11.280;2024-03-06T04:55:22;28.07;;;17.00;;
76210;SDS011;65003;49.518;11.280;2024-03-06T04:57:49;30.13;;;17.53;;
76210;SDS011;65003;49.518;11.280;2024-03-06T05:00:16;28.73;;;17.40;;
76210;SDS011;65003;49.518;11.280;2024-03-06T05:02:42;33.27;;;17.93;;
76210;SDS011;65003;49.518;11.280;2024-03-06T05:05:09;30.20;;;17.77;;
76210;SDS011;65003;49.518;11.280;2024-03-06T05:07:35;30.23;;;18.07;;
76210;SDS011;65003;49.518;11.280;2024-03-06T05:10:02;28.55;;;16.90;;
76210;SDS011;65003;49.518;11.280;2024-03-06T05:12:29;30.53;;;17.73;;
76210;SDS011;65003;49.518;11.280;2024-03-06T05:14:55;31.30;;;18.67;;
76210;SDS011;65003;49.518;11.280;2024-03-06T05:17:22;29.43;;;17.17;;
76210;SDS011;65003;49.518;11.280;2024-03-06T05:19:49;27.47;;;16.17;;
76210;SDS011;65003;49.518;11.280;2024-03-06T05:22:15;27.63;;;15.87;;
76210;SDS011;65003;49.518;11.280;2024-03-06T05:24:42;32.00;;;18.47;;
76210;SDS011;65003;49.518;11.280;2024-03-06T05:27:09;28.87;;;16.70;;
76210;SDS011;65003;49.518;11.280;2024-03-06T05:29:35;28.07;;;17.47;;
76210;SDS011;65003;49.518;11.280;2024-03-06T05:32:02;27.93;;;16.77;;
76210;SDS011;65003;49.518;11.280;2024-03-06T05:34:28;27.80;;;16.77;;
76210;SDS011;65003;49.518;11.280;2024-03-06T05:36:55;33.90;;;16.60;;
76210;SDS011;65003;49.518;11.280;2024-03-06T05:39:27;30.73;;;16.37;;
76210;SDS011;65003;49.518;11.280;2024-03-06T05:41:54;27.60;;;16.93;;
76210;SDS011;65003;49.518;11.280;2024-03-06T05:44:20;29.53;;;18.03;;
76210;SDS011;65003;49.518;11.280;2024-03-06T05:46:47;25.33;;;15.97;;
76210;SDS011;65003;49.518;11.280;2024-03-06T05:49:14;29.97;;;16.77;;
76210;SDS011;65003;49.518;11.280;2024-03-06T05:51:40;29.90;;;16.97;;
76210;SDS011;65003;49.518;11.280;2024-03-06T05:54:07;31.33;;;17.48;;
76210;SDS011;65003;49.518;11.280;2024-03-06T05:56:35;30.57;;;16.97;;
76210;SDS011;65003;49.518;11.280;2024-03-06T05:59:01;29.43;;;17.63;;
76210;SDS011;65003;49.518;11.280;2024-03-06T06:01:29;30.73;;;16.30;;
76210;SDS011;65003;49.518;11.280;2024-03-06T06:03:55;27.93;;;17.07;;
76210;SDS011;65003;49.518;11.280;2024-03-06T06:06:22;28.93;;;16.27;;
76210;SDS011;65003;49.518;11.280;2024-03-06T06:08:49;27.57;;;16.03;;
76210;SDS011;65003;49.518;11.280;2024-03-06T06:11:15;26.00;;;15.13;;
76210;SDS011;65003;49.518;11.280;2024-03-06T06:13:42;27.53;;;15.43;;
76210;SDS011;65003;49.518;11.280;2024-03-06T06:16:08;29.40;;;16.25;;
76210;SDS011;65003;49.518;11.280;2024-03-06T06:18:35;25.30;;;14.23;;
76210;SDS011;65003;49.518;11.280;2024-03-06T06:21:02;27.63;;;16.17;;
76210;SDS011;65003;49.518;11.280;2024-03-06T06:23:28;25.87;;;14.87;;
76210;SDS011;65003;49.518;11.280;2024-03-06T06:25:55;26.33;;;14.77;;
76210;SDS011;65003;49.518;11.280;2024-03-06T06:28:21;23.70;;;13.47;;
76210;SDS011;65003;49.518;11.280;2024-03-06T06:30:48;21.80;;;13.00;;
76210;SDS011;65003;49.518;11.280;2024-03-06T06:33:14;26.33;;;14.30;;
76210;SDS011;65003;49.518;11.280;2024-03-06T06:35:41;23.20;;;13.50;;
76210;SDS011;65003;49.518;11.280;2024-03-06T06:38:08;24.00;;;13.53;;
76210;SDS011;65003;49.518;11.280;2024-03-06T06:40:34;23.53;;;13.67;;
76210;SDS011;65003;49.518;11.280;2024-03-06T06:43:01;20.10;;;12.90;;
76210;SDS011;65003;49.518;11.280;2024-03-06T06:45:27;25.70;;;13.97;;
76210;SDS011;65003;49.518;11.280;2024-03-06T06:47:54;27.77;;;14.17;;
76210;SDS011;65003;49.518;11.280;2024-03-06T06:50:21;25.07;;;14.47;;
76210;SDS011;65003;49.518;11.280;2024-03-06T06:52:47;21.77;;;13.77;;
76210;SDS011;65003;49.518;11.280;2024-03-06T06:55:14;23.70;;;14.30;;
76210;SDS011;65003;49.518;11.280;2024-03-06T06:57:40;22.80;;;13.83;;
76210;SDS011;65003;49.518;11.280;2024-03-06T07:00:07;22.77;;;14.13;;
76210;SDS011;65003;49.518;11.280;2024-03-06T07:02:38;26.27;;;14.13;;
76210;SDS011;65003;49.518;11.280;2024-03-06T07:05:05;24.10;;;13.43;;
76210;SDS011;65003;49.518;11.280;2024-03-06T07:07:32;21.33;;;12.97;;
76210;SDS011;65003;49.518;11.280;2024-03-06T07:09:58;22.95;;;13.75;;
76210;SDS011;65003;49.518;11.280;2024-03-06T07:12:25;26.57;;;13.50;;
76210;SDS011;65003;49.518;11.280;2024-03-06T07:14:51;25.40;;;14.43;;
76210;SDS011;65003;49.518;11.280;2024-03-06T07:17:18;22.50;;;14.30;;
76210;SDS011;65003;49.518;11.280;2024-03-06T07:19:45;28.15;;;14.28;;
76210;SDS011;65003;49.518;11.280;2024-03-06T07:22:11;20.93;;;13.10;;
76210;SDS011;65003;49.518;11.280;2024-03-06T07:24:38;25.13;;;14.30;;
76210;SDS011;65003;49.518;11.280;2024-03-06T07:27:05;24.90;;;14.03;;
76210;SDS011;65003;49.518;11.280;2024-03-06T07:29:31;25.03;;;14.37;;
76210;SDS011;65003;49.518;11.280;2024-03-06T07:31:58;27.00;;;15.68;;
76210;SDS011;65003;49.518;11.280;2024-03-06T07:34:24;25.30;;;14.73;;
76210;SDS011;65003;49.518;11.280;2024-03-06T07:36:51;24.50;;;15.07;;
76210;SDS011;65003;49.518;11.280;2024-03-06T07:39:18;26.00;;;14.83;;
76210;SDS011;65003;49.518;11.280;2024-03-06T07:41:45;32.33;;;14.73;;
76210;SDS011;65003;49.518;11.280;2024-03-06T07:44:11;26.67;;;15.43;;
76210;SDS011;65003;49.518;11.280;2024-03-06T07:46:38;26.27;;;13.60;;
76210;SDS011;65003;49.518;11.280;2024-03-06T07:49:05;21.48;;;13.70;;
76210;SDS011;65003;49.518;11.280;2024-03-06T07:51:32;22.77;;;13.33;;
76210;SDS011;65003;49.518;11.280;2024-03-06T07:53:58;28.20;;;14.90;;
76210;SDS011;65003;49.518;11.280;2024-03-06T07:56:25;23.00;;;13.73;;
76210;SDS011;65003;49.518;11.280;2024-03-06T07:58:51;26.70;;;13.67;;
76210;SDS011;65003;49.518;11.280;2024-03-06T08:01:17;24.57;;;13.70;;
76210;SDS011;65003;49.518;11.280;2024-03-06T08:03:44;28.00;;;14.03;;
76210;SDS011;65003;49.518;11.280;2024-03-06T08:06:11;25.03;;;13.47;;
76210;SDS011;65003;49.518;11.280;2024-03-06T08:08:39;23.73;;;13.23;;
76210;SDS011;65003;49.518;11.280;2024-03-06T08:11:04;27.03;;;14.30;;
76210;SDS011;65003;49.518;11.280;2024-03-06T08:13:31;21.27;;;13.07;;
76210;SDS011;65003;49.518;11.280;2024-03-06T08:15:57;22.75;;;12.37;;
76210;SDS011;65003;49.518;11.280;2024-03-06T08:18:24;24.43;;;13.90;;
76210;SDS011;65003;49.518;11.280;2024-03-06T08:20:50;24.30;;;12.83;;
76210;SDS011;65003;49.518;11.280;2024-03-06T08:23:17;23.50;;;13.53;;
76210;SDS011;65003;49.518;11.280;2024-03-06T08:25:43;22.67;;;13.37;;
76210;SDS011;65003;49.518;11.280;2024-03-06T08:28:10;22.55;;;13.28;;
76210;SDS011;65003;49.518;11.280;2024-03-06T08:30:37;19.80;;;13.63;;
76210;SDS011;65003;49.518;11.280;2024-03-06T08:33:03;21.97;;;13.27;;
76210;SDS011;65003;49.518;11.280;2024-03-06T08:35:30;21.57;;;12.93;;
76210;SDS011;65003;49.518;11.280;2024-03-06T08:37:57;24.67;;;14.70;;
76210;SDS011;65003;49.518;11.280;2024-03-06T08:40:23;27.07;;;14.03;;
76210;SDS011;65003;49.518;11.280;2024-03-06T08:42:50;22.67;;;13.10;;
76210;SDS011;65003;49.518;11.280;2024-03-06T08:45:16;28.40;;;14.63;;
76210;SDS011;65003;49.518;11.280;2024-03-06T08:47:43;28.47;;;14.67;;
76210;SDS011;65003;49.518;11.280;2024-03-06T08:50:10;24.83;;;13.90;;
76210;SDS011;65003;49.518;11.280;2024-03-06T08:52:36;23.03;;;15.37;;
76210;SDS011;65003;49.518;11.280;2024-03-06T08:55:03;25.03;;;14.20;;
76210;SDS011;65003;49.518;11.280;2024-03-06T08:57:30;25.23;;;14.53;;
76210;SDS011;65003;49.518;11.280;2024-03-06T08:59:57;26.03;;;15.40;;
76210;SDS011;65003;49.518;11.280;2024-03-06T09:02:24;24.80;;;14.37;;
76210;SDS011;65003;49.518;11.280;2024-03-06T09:04:50;23.60;;;14.37;;
76210;SDS011;65003;49.518;11.280;2024-03-06T09:07:17;23.70;;;14.27;;
76210;SDS011;65003;49.518;11.280;2024-03-06T09:09:43;31.07;;;15.53;;
76210;SDS011;65003;49.518;11.280;2024-03-06T09:12:10;25.20;;;14.73;;
76210;SDS011;65003;49.518;11.280;2024-03-06T09:14:37;25.70;;;14.93;;
76210;SDS011;65003;49.518;11.280;2024-03-06T09:17:03;27.03;;;15.23;;
76210;SDS011;65003;49.518;11.280;2024-03-06T09:19:30;32.07;;;15.93;;
76210;SDS011;65003;49.518;11.280;2024-03-06T09:21:56;25.97;;;15.57;;
76210;SDS011;65003;49.518;11.280;2024-03-06T09:24:23;27.13;;;15.40;;
76210;SDS011;65003;49.518;11.280;2024-03-06T09:26:50;26.53;;;15.90;;
76210;SDS011;65003;49.518;11.280;2024-03-06T09:29:16;29.93;;;15.27;;
76210;SDS011;65003;49.518;11.280;2024-03-06T09:31:43;31.23;;;15.93;;
76210;SDS011;65003;49.518;11.280;2024-03-06T09:34:10;32.55;;;14.80;;
76210;SDS011;65003;49.518;11.280;2024-03-06T09:36:36;29.80;;;17.10;;
76210;SDS011;65003;49.518;11.280;2024-03-06T09:39:03;29.17;;;17.03;;
76210;SDS011;65003;49.518;11.280;2024-03-06T09:41:30;29.00;;;15.97;;
76210;SDS011;65003;49.518;11.280;2024-03-06T09:43:58;30.20;;;17.10;;
76210;SDS011;65003;49.518;11.280;2024-03-06T09:46:23;28.70;;;16.50;;
76210;SDS011;65003;49.518;11.280;2024-03-06T09:48:50;26.20;;;15.20;;
76210;SDS011;65003;49.518;11.280;2024-03-06T09:51:16;29.00;;;16.07;;
76210;SDS011;65003;49.518;11.280;2024-03-06T09:53:43;31.20;;;16.70;;
76210;SDS011;65003;49.518;11.280;2024-03-06T09:56:10;28.27;;;15.77;;
76210;SDS011;65003;49.518;11.280;2024-03-06T09:58:36;26.87;;;15.70;;
76210;SDS011;65003;49.518;11.280;2024-03-06T10:01:03;24.43;;;15.27;;
76210;SDS011;65003;49.518;11.280;2024-03-06T10:03:30;26.53;;;14.37;;
76210;SDS011;65003;49.518;11.280;2024-03-06T10:05:56;25.10;;;14.60;;
76210;SDS011;65003;49.518;11.280;2024-03-06T10:08:23;23.53;;;13.47;;
76210;SDS011;65003;49.518;11.280;2024-03-06T10:10:49;26.13;;;14.73;;
76210;SDS011;65003;49.518;11.280;2024-03-06T10:13:16;22.77;;;13.83;;
76210;SDS011;65003;49.518;11.280;2024-03-06T10:15:55;23.07;;;14.10;;
76210;SDS011;65003;49.518;11.280;2024-03-06T10:18:27;20.63;;;13.57;;
76210;SDS011;65003;49.518;11.280;2024-03-06T10:20:53;22.30;;;13.63;;
76210;SDS011;65003;49.518;11.280;2024-03-06T10:23:20;21.60;;;12.37;;
76210;SDS011;65003;49.518;11.280;2024-03-06T10:25:47;22.67;;;15.03;;
76210;SDS011;65003;49.518;11.280;2024-03-06T10:28:13;22.30;;;12.90;;
76210;SDS011;65003;49.518;11.280;2024-03-06T10:30:40;20.93;;;13.23;;
76210;SDS011;65003;49.518;11.280;2024-03-06T10:33:08;23.53;;;13.43;;
76210;SDS011;65003;49.518;11.280;2024-03-06T10:35:35;19.97;;;11.70;;
76210;SDS011;65003;49.518;11.280;2024-03-06T10:38:03;18.10;;;11.03;;
76210;SDS011;65003;49.518;11.280;2024-03-06T10:40:31;20.33;;;11.90;;
76210;SDS011;65003;49.518;11.280;2024-03-06T10:42:58;18.03;;;10.83;;
76210;SDS011;65003;49.518;11.280;2024-03-06T10:45:25;16.97;;;11.17;;
76210;SDS011;65003;49.518;11.280;2024-03-06T10:47:50;19.60;;;11.47;;
76210;SDS011;65003;49.518;11.280;2024-03-06T10:50:17;19.40;;;13.03;;
76210;SDS011;65003;49.518;11.280;2024-03-06T10:52:44;21.23;;;12.30;;
76210;SDS011;65003;49.518;11.280;2024-03-06T10:55:10;19.70;;;11.63;;
76210;SDS011;65003;49.518;11.280;2024-03-06T10:57:37;20.73;;;13.10;;
76210;SDS011;65003;49.518;11.280;2024-03-06T11:00:03;20.20;;;13.03;;
76210;SDS011;65003;49.518;11.280;2024-03-06T11:02:30;21.17;;;12.10;;
76210;SDS011;65003;49.518;11.280;2024-03-06T11:04:57;22.17;;;12.77;;
76210;SDS011;65003;49.518;11.280;2024-03-06T11:07:24;21.80;;;12.70;;
76210;SDS011;65003;49.518;11.280;2024-03-06T11:09:50;21.60;;;13.20;;
76210;SDS011;65003;49.518;11.280;2024-03-06T11:15:09;20.20;;;11.93;;
76210;SDS011;65003;49.518;11.280;2024-03-06T11:17:36;23.10;;;13.17;;
76210;SDS011;65003;49.518;11.280;2024-03-06T11:20:18;20.63;;;13.17;;
76210;SDS011;65003;49.518;11.280;2024-03-06T11:28:25;22.67;;;12.40;;
76210;SDS011;65003;49.518;11.280;2024-03-06T11:30:55;22.23;;;12.23;;
76210;SDS011;65003;49.518;11.280;2024-03-06T11:33:21;21.93;;;13.03;;
76210;SDS011;65003;49.518;11.280;2024-03-06T11:38:28;23.67;;;13.60;;
76210;SDS011;65003;49.518;11.280;2024-03-06T11:40:53;21.13;;;12.57;;
76210;SDS011;65003;49.518;11.280;2024-03-06T11:43:22;19.60;;;11.73;;
76210;SDS011;65003;49.518;11.280;2024-03-06T11:45:48;18.47;;;11.80;;
76210;SDS011;65003;49.518;11.280;2024-03-06T11:48:14;20.93;;;11.87;;
76210;SDS011;65003;49.518;11.280;2024-03-06T11:50:42;19.70;;;11.90;;
76210;SDS011;65003;49.518;11.280;2024-03-06T11:53:08;19.27;;;11.30;;
76210;SDS011;65003;49.518;11.280;2024-03-06T11:55:35;17.23;;;10.33;;
76210;SDS011;65003;49.518;11.280;2024-03-06T11:58:02;17.32;;;11.12;;
76210;SDS011;65003;49.518;11.280;2024-03-06T12:00:30;20.37;;;10.70;;
76210;SDS011;65003;49.518;11.280;2024-03-06T12:02:56;13.80;;;8.97;;
76210;SDS011;65003;49.518;11.280;2024-03-06T12:05:22;17.30;;;10.40;;
76210;SDS011;65003;49.518;11.280;2024-03-06T12:07:49;15.73;;;9.70;;
76210;SDS011;65003;49.518;11.280;2024-03-06T12:10:16;18.90;;;10.90;;
76210;SDS011;65003;49.518;11.280;2024-03-06T12:12:42;19.00;;;11.63;;
76210;SDS011;65003;49.518;11.280;2024-03-06T12:15:09;16.63;;;10.57;;
76210;SDS011;65003;49.518;11.280;2024-03-06T12:17:43;19.43;;;10.10;;
76210;SDS011;65003;49.518;11.280;2024-03-06T12:20:10;16.83;;;10.03;;
76210;SDS011;65003;49.518;11.280;2024-03-06T12:22:36;16.10;;;10.77;;
76210;SDS011;65003;49.518;11.280;2024-03-06T12:25:03;18.10;;;10.73;;
76210;SDS011;65003;49.518;11.280;2024-03-06T12:27:30;15.53;;;10.37;;
76210;SDS011;65003;49.518;11.280;2024-03-06T12:29:57;14.97;;;9.77;;
76210;SDS011;65003;49.518;11.280;2024-03-06T12:32:23;19.10;;;10.57;;
76210;SDS011;65003;49.518;11.280;2024-03-06T12:34:57;19.50;;;11.03;;
76210;SDS011;65003;49.518;11.280;2024-03-06T12:37:28;20.43;;;12.03;;
76210;SDS011;65003;49.518;11.280;2024-03-06T12:39:50;18.67;;;11.17;;
76210;SDS011;65003;49.518;11.280;2024-03-06T12:42:17;19.93;;;12.03;;
76210;SDS011;65003;49.518;11.280;2024-03-06T12:44:43;18.30;;;11.20;;
76210;SDS011;65003;49.518;11.280;2024-03-06T12:47:10;20.17;;;11.57;;
76210;SDS011;65003;49.518;11.280;2024-03-06T12:49:37;19.07;;;10.97;;
76210;SDS011;65003;49.518;11.280;2024-03-06T12:52:03;18.70;;;11.85;;
76210;SDS011;65003;49.518;11.280;2024-03-06T12:54:30;18.53;;;11.83;;
76210;SDS011;65003;49.518;11.280;2024-03-06T12:56:56;16.90;;;11.03;;
76210;SDS011;65003;49.518;11.280;2024-03-06T12:59:23;18.33;;;10.33;;
76210;SDS011;65003;49.518;11.280;2024-03-06T13:01:50;16.93;;;12.00;;
76210;SDS011;65003;49.518;11.280;2024-03-06T13:04:16;16.83;;;11.40;;
76210;SDS011;65003;49.518;11.280;2024-03-06T13:06:43;19.53;;;11.33;;
76210;SDS011;65003;49.518;11.280;2024-03-06T13:09:09;17.47;;;11.33;;
76210;SDS011;65003;49.518;11.280;2024-03-06T13:11:36;16.57;;;10.93;;
76210;SDS011;65003;49.518;11.280;2024-03-06T13:14:03;16.20;;;10.03;;
76210;SDS011;65003;49.518;11.280;2024-03-06T13:16:29;15.43;;;10.43;;
76210;SDS011;65003;49.518;11.280;2024-03-06T13:18:56;20.03;;;11.83;;
76210;SDS011;65003;49.518;11.280;2024-03-06T13:21:23;20.60;;;11.87;;
76210;SDS011;65003;49.518;11.280;2024-03-06T13:23:49;18.20;;;11.07;;
76210;SDS011;65003;49.518;11.280;2024-03-06T13:26:15;19.40;;;11.87;;
76210;SDS011;65003;49.518;11.280;2024-03-06T13:28:42;18.87;;;11.20;;
76210;SDS011;65003;49.518;11.280;2024-03-06T13:31:09;17.02;;;11.28;;
76210;SDS011;65003;49.518;11.280;2024-03-06T13:33:35;17.13;;;10.30;;
76210;SDS011;65003;49.518;11.280;2024-03-06T13:36:02;16.63;;;10.33;;
76210;SDS011;65003;49.518;11.280;2024-03-06T13:38:29;17.40;;;11.47;;
76210;SDS011;65003;49.518;11.280;2024-03-06T13:40:55;18.27;;;11.93;;
76210;SDS011;65003;49.518;11.280;2024-03-06T13:43:22;15.90;;;10.73;;
76210;SDS011;65003;49.518;11.280;2024-03-06T13:45:49;16.40;;;10.97;;
76210;SDS011;65003;49.518;11.280;2024-03-06T13:48:16;16.03;;;11.30;;
76210;SDS011;65003;49.518;11.280;2024-03-06T13:50:43;19.53;;;12.23;;
76210;SDS011;65003;49.518;11.280;2024-03-06T13:53:09;20.57;;;11.30;;
76210;SDS011;65003;49.518;11.280;2024-03-06T13:55:36;17.70;;;10.63;;
76210;SDS011;65003;49.518;11.280;2024-03-06T13:58:02;17.65;;;11.35;;
76210;SDS011;65003;49.518;11.280;2024-03-06T14:00:29;18.00;;;11.20;;
76210;SDS011;65003;49.518;11.280;2024-03-06T14:02:55;17.50;;;10.87;;
76210;SDS011;65003;49.518;11.280;2024-03-06T14:05:22;18.00;;;11.37;;
76210;SDS011;65003;49.518;11.280;2024-03-06T14:07:51;15.93;;;10.13;;
76210;SDS011;65003;49.518;11.280;2024-03-06T14:10:18;22.80;;;12.27;;
76210;SDS011;65003;49.518;11.280;2024-03-06T14:12:44;18.20;;;11.03;;
76210;SDS011;65003;49.518;11.280;2024-03-06T14:15:11;17.90;;;10.90;;
76210;SDS011;65003;49.518;11.280;2024-03-06T14:17:38;17.67;;;11.43;;